Time;durP1;ratioP1;P1;durP2;ratioP2;P2;SDS_P1;SDS_P2;PMS_P1;PMS_P2;Temp;Humidity;BMP_temperature;BMP_pressure;BME280_temperature;BME280_humidity;BME280_pressure;Samples;Min_cycle;Max_cycle;Signal;HPM_P1;HPM_P2
2023/08/11 00:01:17;;;;;;;13.98;12.35;;;15.90;99.90;;;;;;4990115;28;20053;-84
2023/08/11 00:03:43;;;;;;;12.10;10.95;;;15.80;99.90;;;;;;4991084;28;20046;-84
2023/08/11 00:06:09;;;;;;;12.98;11.77;;;15.80;99.90;;;;;;4991061;28;20121;-84
2023/08/11 00:08:38;;;;;;;13.13;11.70;;;15.70;99.90;;;;;;4957185;28;20468;-84
2023/08/11 00:11:03;;;;;;;12.73;11.18;;;15.70;99.90;;;;;;4969981;28;20501;-83
2023/08/11 00:13:30;;;;;;;19.05;12.80;;;15.60;99.90;;;;;;4988073;28;20105;-83
2023/08/11 00:15:56;;;;;;;13.68;12.43;;;15.60;99.90;;;;;;4990734;28;20125;-83
2023/08/11 00:18:21;;;;;;;13.80;12.48;;;15.50;99.90;;;;;;4990658;28;20122;-83
2023/08/11 00:20:47;;;;;;;13.57;12.23;;;15.50;99.90;;;;;;4990867;28;20623;-83
2023/08/11 00:23:12;;;;;;;13.25;11.70;;;15.40;99.90;;;;;;4989022;28;20098;-82
2023/08/11 00:25:38;;;;;;;15.57;13.35;;;15.40;99.90;;;;;;4989702;28;20116;-83
2023/08/11 00:28:04;;;;;;;14.85;13.38;;;15.30;99.90;;;;;;4990573;28;20540;-83
2023/08/11 00:30:30;;;;;;;14.25;12.70;;;15.30;99.90;;;;;;4990051;28;20050;-83
2023/08/11 00:32:55;;;;;;;13.43;11.88;;;15.30;99.90;;;;;;4989620;28;20050;-83
2023/08/11 00:35:24;;;;;;;12.88;11.57;;;15.20;99.90;;;;;;4988896;28;20054;-83
2023/08/11 00:37:50;;;;;;;12.27;11.07;;;15.20;99.90;;;;;;4990467;28;20046;-83
2023/08/11 00:40:16;;;;;;;14.25;12.48;;;15.10;99.90;;;;;;4988763;28;20510;-83
2023/08/11 00:42:42;;;;;;;14.32;12.85;;;15.10;99.90;;;;;;4990053;28;20046;-83
2023/08/11 00:45:09;;;;;;;15.40;13.82;;;15.10;99.90;;;;;;4972063;28;20051;-83
2023/08/11 00:47:35;;;;;;;15.13;13.52;;;15.00;99.90;;;;;;4988515;28;20077;-83
2023/08/11 00:50:02;;;;;;;18.13;14.40;;;15.00;99.90;;;;;;4987850;28;20042;-84
2023/08/11 00:52:28;;;;;;;17.40;15.60;;;15.10;99.90;;;;;;4988833;28;20767;-84
2023/08/11 00:54:56;;;;;;;15.80;13.60;;;14.90;99.90;;;;;;4974249;28;20208;-84
2023/08/11 00:57:22;;;;;;;14.65;13.15;;;14.90;99.90;;;;;;4972998;28;20051;-82
2023/08/11 00:59:48;;;;;;;15.57;14.07;;;14.90;99.90;;;;;;4987647;28;20065;-83
2023/08/11 01:02:14;;;;;;;15.05;13.55;;;14.80;99.90;;;;;;4972396;28;20413;-82
2023/08/11 01:04:40;;;;;;;14.35;12.90;;;14.80;99.90;;;;;;4989454;28;20713;-83
2023/08/11 01:07:34;;;;;;;16.13;14.32;;;14.80;99.90;;;;;;4972414;28;20122;-84
2023/08/11 01:10:15;;;;;;;13.90;12.57;;;14.80;99.90;;;;;;4988793;28;20133;-84
2023/08/11 01:12:51;;;;;;;17.17;14.77;;;14.80;99.90;;;;;;4988925;28;20547;-83
2023/08/11 01:15:22;;;;;;;16.05;14.23;;;14.70;99.90;;;;;;4988870;28;20630;-84
2023/08/11 01:17:49;;;;;;;14.82;13.23;;;14.70;99.90;;;;;;4989563;28;20038;-84
2023/08/11 01:20:16;;;;;;;14.82;13.43;;;14.70;99.90;;;;;;4988682;28;20061;-83
2023/08/11 01:22:47;;;;;;;16.50;14.90;;;14.70;99.90;;;;;;4989775;28;20046;-84
2023/08/11 01:25:13;;;;;;;16.58;15.02;;;14.70;99.90;;;;;;4987323;28;20455;-84
2023/08/11 01:27:47;;;;;;;15.63;14.00;;;14.70;99.90;;;;;;4989388;28;20042;-84
2023/08/11 01:30:14;;;;;;;15.45;13.93;;;14.70;99.90;;;;;;4989960;28;20521;-83
2023/08/11 01:32:40;;;;;;;17.23;14.05;;;14.70;99.90;;;;;;4983967;28;20054;-84
2023/08/11 01:35:09;;;;;;;15.13;13.57;;;14.60;99.90;;;;;;4973831;28;20050;-83
2023/08/11 01:37:35;;;;;;;16.80;14.65;;;14.60;99.90;;;;;;4968368;28;20239;-83
2023/08/11 01:40:01;;;;;;;16.67;15.07;;;14.60;99.90;;;;;;4968066;28;20571;-84
2023/08/11 01:42:26;;;;;;;17.45;15.48;;;14.60;99.90;;;;;;4968510;28;20535;-84
2023/08/11 01:44:52;;;;;;;17.48;14.18;;;14.60;99.90;;;;;;4970565;28;20050;-84
2023/08/11 01:47:19;;;;;;;15.13;13.73;;;14.60;99.90;;;;;;4982789;28;20120;-83
2023/08/11 01:49:46;;;;;;;16.60;14.90;;;14.60;99.90;;;;;;4986853;28;20092;-84
2023/08/11 01:52:13;;;;;;;15.80;14.35;;;14.60;99.90;;;;;;4989161;28;20081;-83
2023/08/11 01:54:42;;;;;;;17.73;15.93;;;14.60;99.90;;;;;;4988041;28;20054;-83
2023/08/11 01:57:09;;;;;;;18.50;16.08;;;14.60;99.90;;;;;;4961548;28;20050;-83
2023/08/11 01:59:35;;;;;;;17.52;15.70;;;14.60;99.90;;;;;;4987199;28;20120;-84
2023/08/11 02:02:00;;;;;;;16.73;14.98;;;14.60;99.90;;;;;;4987402;28;20038;-83
2023/08/11 02:04:26;;;;;;;21.25;15.80;;;14.60;99.90;;;;;;4972375;28;20053;-84
2023/08/11 02:06:51;;;;;;;18.38;15.10;;;14.50;99.90;;;;;;4987998;28;20511;-84
2023/08/11 02:09:17;;;;;;;16.60;14.90;;;14.50;99.90;;;;;;4987599;28;20050;-83
2023/08/11 02:11:43;;;;;;;16.33;14.63;;;14.50;99.90;;;;;;4988287;28;20045;-83
2023/08/11 02:14:08;;;;;;;17.13;15.52;;;14.50;99.90;;;;;;4986653;28;20046;-84
2023/08/11 02:16:35;;;;;;;16.27;14.77;;;14.50;99.90;;;;;;5002264;28;20110;-82
2023/08/11 02:19:01;;;;;;;16.88;15.18;;;14.40;99.90;;;;;;4988223;28;20133;-83
2023/08/11 02:21:27;;;;;;;18.10;15.85;;;14.50;99.90;;;;;;4981066;28;20525;-82
2023/08/11 02:23:53;;;;;;;17.27;15.68;;;14.50;99.90;;;;;;4987295;28;20046;-83
2023/08/11 02:26:19;;;;;;;15.98;14.32;;;14.50;99.90;;;;;;4986986;28;20461;-83
2023/08/11 02:28:44;;;;;;;16.85;15.15;;;14.50;99.90;;;;;;4987527;28;20046;-83
2023/08/11 02:31:10;;;;;;;15.98;14.45;;;14.50;99.90;;;;;;4987430;28;20046;-83
2023/08/11 02:33:36;;;;;;;15.82;14.32;;;14.50;99.90;;;;;;4988087;28;20073;-84
2023/08/11 02:36:04;;;;;;;16.40;14.70;;;14.50;99.90;;;;;;4986089;28;20396;-83
2023/08/11 02:38:29;;;;;;;15.05;13.55;;;14.50;99.90;;;;;;4966403;28;20133;-83
2023/08/11 02:40:55;;;;;;;16.65;14.98;;;14.40;99.90;;;;;;4967022;28;20097;-83
2023/08/11 02:43:21;;;;;;;16.02;14.13;;;14.40;99.90;;;;;;4967412;28;20042;-82
2023/08/11 02:45:47;;;;;;;16.02;14.45;;;14.40;99.90;;;;;;4967871;28;20486;-84
2023/08/11 02:48:13;;;;;;;16.02;14.32;;;14.40;99.90;;;;;;4966678;28;20054;-84
2023/08/11 02:50:38;;;;;;;16.08;14.25;;;14.50;99.90;;;;;;4968600;28;20090;-83
2023/08/11 02:53:04;;;;;;;16.65;14.93;;;14.50;99.90;;;;;;4968900;28;20050;-83
2023/08/11 02:55:30;;;;;;;19.20;15.23;;;14.40;99.90;;;;;;4973522;28;20758;-83
2023/08/11 02:57:55;;;;;;;16.17;14.50;;;14.40;99.90;;;;;;4985945;28;20144;-83
2023/08/11 03:00:21;;;;;;;15.65;13.77;;;14.40;99.90;;;;;;4980410;28;20047;-82
2023/08/11 03:02:50;;;;;;;15.15;13.75;;;14.40;99.90;;;;;;4967208;28;20054;-83
2023/08/11 03:05:16;;;;;;;14.50;13.15;;;14.40;99.90;;;;;;4966799;28;20046;-84
2023/08/11 03:07:43;;;;;;;15.35;13.80;;;14.40;99.90;;;;;;4983819;28;20050;-83
2023/08/11 03:10:11;;;;;;;15.85;14.25;;;14.40;99.90;;;;;;4987435;28;20046;-84
2023/08/11 03:12:37;;;;;;;15.90;14.30;;;14.40;99.90;;;;;;4979586;28;20441;-84
2023/08/11 03:15:05;;;;;;;15.07;13.70;;;14.40;99.90;;;;;;4968072;28;20043;-84
2023/08/11 03:17:31;;;;;;;15.32;13.82;;;14.30;99.90;;;;;;4977707;28;20354;-83
2023/08/11 03:19:57;;;;;;;14.77;13.32;;;14.50;99.90;;;;;;4981625;28;20455;-83
2023/08/11 03:22:22;;;;;;;14.23;12.73;;;14.30;99.90;;;;;;4950615;28;20055;-84
2023/08/11 03:24:48;;;;;;;14.15;12.75;;;14.40;99.90;;;;;;4973330;28;20054;-83
2023/08/11 03:27:14;;;;;;;16.45;13.25;;;14.30;99.90;;;;;;4987908;28;20082;-83
2023/08/11 03:29:41;;;;;;;14.85;13.32;;;14.20;99.90;;;;;;4987290;28;20054;-83
2023/08/11 03:32:07;;;;;;;14.18;12.88;;;14.20;99.90;;;;;;4985246;28;20051;-83
2023/08/11 03:34:32;;;;;;;14.30;12.88;;;14.70;99.90;;;;;;4986540;28;20069;-83
2023/08/11 03:36:58;;;;;;;13.68;12.27;;;14.20;99.90;;;;;;4984380;28;20061;-84
2023/08/11 03:39:24;;;;;;;14.60;11.82;;;14.20;99.90;;;;;;4989641;28;20050;-83
2023/08/11 03:41:51;;;;;;;13.32;11.93;;;14.20;99.90;;;;;;4991674;28;20337;-83
2023/08/11 03:44:17;;;;;;;14.10;12.70;;;14.20;99.90;;;;;;4990506;28;20471;-83
2023/08/11 03:46:43;;;;;;;13.93;12.52;;;14.30;99.90;;;;;;4991011;28;20046;-83
2023/08/11 03:49:08;;;;;;;14.60;12.77;;;14.10;99.90;;;;;;4985382;28;20046;-82
2023/08/11 03:51:34;;;;;;;13.63;12.32;;;14.10;99.90;;;;;;4985654;28;20412;-82
2023/08/11 03:54:02;;;;;;;13.25;11.90;;;14.20;99.90;;;;;;4990903;28;20054;-83
2023/08/11 03:56:28;;;;;;;15.57;12.57;;;14.20;99.90;;;;;;4972641;28;20047;-83
2023/08/11 03:58:54;;;;;;;14.55;13.15;;;14.20;99.90;;;;;;4981571;28;20043;-83
2023/08/11 04:01:20;;;;;;;13.95;12.65;;;14.10;99.90;;;;;;4990978;28;20053;-83
2023/08/11 04:03:46;;;;;;;13.63;12.32;;;14.10;99.90;;;;;;4990407;28;20038;-83
2023/08/11 04:06:11;;;;;;;14.15;12.57;;;14.10;99.90;;;;;;4990619;28;20535;-83
2023/08/11 04:08:37;;;;;;;12.88;11.57;;;14.40;99.90;;;;;;4990320;28;20082;-83
2023/08/11 04:11:02;;;;;;;13.43;12.02;;;14.10;99.90;;;;;;4991233;28;20050;-83
2023/08/11 04:13:28;;;;;;;13.30;12.00;;;14.00;99.90;;;;;;4990838;28;20402;-83
2023/08/11 04:15:53;;;;;;;12.70;10.77;;;14.00;99.90;;;;;;4989481;28;20053;-83
2023/08/11 04:18:19;;;;;;;13.70;12.23;;;14.10;99.90;;;;;;4990668;28;20069;-83
2023/08/11 04:20:46;;;;;;;12.18;11.00;;;14.00;99.90;;;;;;4990383;28;20078;-83
2023/08/11 04:23:14;;;;;;;12.32;11.13;;;14.10;99.90;;;;;;4990672;28;20046;-83
2023/08/11 04:25:40;;;;;;;12.18;11.02;;;14.10;99.90;;;;;;4989544;28;20050;-82
2023/08/11 04:28:05;;;;;;;13.80;11.35;;;14.00;99.90;;;;;;4990467;28;20050;-82
2023/08/11 04:30:32;;;;;;;12.98;11.57;;;14.10;99.90;;;;;;4989417;28;20689;-82
2023/08/11 04:32:59;;;;;;;11.90;10.73;;;14.10;99.90;;;;;;4990707;28;20050;-83
2023/08/11 04:35:25;;;;;;;12.95;10.65;;;14.10;99.90;;;;;;4989398;28;20088;-83
2023/08/11 04:37:50;;;;;;;12.55;10.95;;;14.10;99.90;;;;;;4982943;28;20141;-82
2023/08/11 04:40:17;;;;;;;14.00;11.50;;;14.10;99.90;;;;;;4977621;28;20177;-83
2023/08/11 04:42:43;;;;;;;13.35;11.95;;;14.10;99.90;;;;;;4989284;28;20053;-82
2023/08/11 04:45:10;;;;;;;13.45;11.55;;;14.10;99.90;;;;;;4990427;28;20038;-82
2023/08/11 04:47:36;;;;;;;14.20;11.85;;;14.20;99.90;;;;;;4989079;28;20054;-83
2023/08/11 04:50:01;;;;;;;12.50;11.30;;;14.20;99.90;;;;;;4990120;28;20559;-82
2023/08/11 04:52:27;;;;;;;12.63;11.30;;;14.30;99.90;;;;;;4990266;28;20039;-83
2023/08/11 04:54:53;;;;;;;15.20;12.20;;;14.30;99.90;;;;;;4984705;28;20062;-83
2023/08/11 04:57:18;;;;;;;12.00;10.90;;;14.30;99.90;;;;;;4983647;28;20054;-82
2023/08/11 04:59:44;;;;;;;15.70;12.38;;;14.40;99.90;;;;;;4989944;28;20047;-83
2023/08/11 05:02:11;;;;;;;13.10;11.82;;;14.40;99.90;;;;;;4972339;28;20047;-82
2023/08/11 05:04:37;;;;;;;12.93;11.63;;;14.40;99.90;;;;;;4970376;28;20102;-83
2023/08/11 05:07:03;;;;;;;12.73;11.63;;;14.50;99.90;;;;;;4970622;28;20039;-82
2023/08/11 05:09:28;;;;;;;12.02;10.93;;;14.50;99.90;;;;;;4968908;28;20266;-82
2023/08/11 05:11:54;;;;;;;15.60;11.90;;;14.60;99.90;;;;;;4981266;28;20496;-82
2023/08/11 05:14:19;;;;;;;12.02;10.82;;;14.60;99.90;;;;;;4972112;28;20085;-82
2023/08/11 05:16:45;;;;;;;12.18;10.98;;;14.70;99.90;;;;;;4985051;28;20038;-83
2023/08/11 05:19:12;;;;;;;12.40;10.20;;;14.70;99.90;;;;;;4976925;28;20443;-82
2023/08/11 05:21:39;;;;;;;14.05;10.23;;;14.80;99.90;;;;;;4989412;28;20062;-82
2023/08/11 05:24:06;;;;;;;11.60;10.35;;;14.80;99.90;;;;;;4974294;28;20051;-83
2023/08/11 05:26:32;;;;;;;12.23;10.63;;;14.90;99.90;;;;;;4969597;28;20057;-82
2023/08/11 05:28:58;;;;;;;12.20;10.52;;;15.00;99.90;;;;;;4969531;28;20528;-82
2023/08/11 05:31:23;;;;;;;10.88;9.77;;;15.00;99.90;;;;;;4975122;28;20039;-82
2023/08/11 05:33:49;;;;;;;10.30;9.30;;;15.10;99.90;;;;;;4982928;28;20050;-82
2023/08/11 05:36:14;;;;;;;12.27;9.65;;;15.20;99.90;;;;;;4985855;28;20452;-82
2023/08/11 05:38:40;;;;;;;10.40;9.23;;;15.30;99.90;;;;;;4975559;28;20062;-82
2023/08/11 05:41:05;;;;;;;12.15;9.15;;;15.40;99.90;;;;;;4968132;28;20046;-83
2023/08/11 05:43:31;;;;;;;11.90;9.85;;;15.60;99.90;;;;;;4984549;28;20114;-83
2023/08/11 05:45:57;;;;;;;9.55;8.65;;;15.70;99.90;;;;;;4969624;28;20759;-83
2023/08/11 05:48:22;;;;;;;9.68;8.65;;;15.80;99.90;;;;;;4969498;28;20089;-83
2023/08/11 05:50:50;;;;;;;10.27;9.32;;;15.80;99.90;;;;;;4981285;28;20046;-84
2023/08/11 05:53:15;;;;;;;9.20;8.30;;;16.00;99.90;;;;;;4983887;28;20107;-83
2023/08/11 05:55:41;;;;;;;9.63;8.05;;;16.50;99.90;;;;;;4978651;28;20047;-83
2023/08/11 05:58:08;;;;;;;8.82;8.02;;;17.50;99.90;;;;;;4978435;28;20042;-83
2023/08/11 06:00:33;;;;;;;9.25;7.80;;;18.40;99.90;;;;;;4977237;28;20050;-83
2023/08/11 06:02:59;;;;;;;9.68;8.52;;;19.20;99.90;;;;;;4963963;28;20050;-83
2023/08/11 06:05:24;;;;;;;8.68;7.75;;;19.80;99.90;;;;;;4987012;28;20495;-82
2023/08/11 06:07:50;;;;;;;7.93;7.07;;;20.40;99.90;;;;;;4970084;28;20054;-83
2023/08/11 06:10:16;;;;;;;11.13;7.60;;;20.80;99.90;;;;;;4969135;28;20063;-83
2023/08/11 06:12:42;;;;;;;8.70;6.95;;;21.00;99.90;;;;;;4969890;28;20335;-83
2023/08/11 06:15:08;;;;;;;9.15;6.80;;;21.40;99.90;;;;;;4969552;28;20141;-83
2023/08/11 06:17:35;;;;;;;7.55;6.85;;;21.70;99.90;;;;;;4969193;28;20065;-83
2023/08/11 06:20:02;;;;;;;8.63;6.90;;;21.70;99.90;;;;;;4969618;28;20133;-83
2023/08/11 06:22:27;;;;;;;9.75;6.32;;;21.30;99.90;;;;;;4987108;28;20054;-84
2023/08/11 06:24:53;;;;;;;6.82;5.47;;;20.70;99.90;;;;;;4988004;28;20597;-83
2023/08/11 06:27:19;;;;;;;6.70;6.03;;;20.30;99.90;;;;;;4966149;28;20188;-83
2023/08/11 06:29:45;;;;;;;7.82;5.93;;;20.00;99.90;;;;;;4988288;28;20049;-83
2023/08/11 06:32:10;;;;;;;8.55;5.93;;;19.60;99.90;;;;;;4988019;28;20054;-83
2023/08/11 06:34:36;;;;;;;8.48;5.88;;;19.40;99.90;;;;;;4987929;28;20073;-83
2023/08/11 06:37:01;;;;;;;6.53;5.80;;;19.30;99.90;;;;;;4987385;28;20054;-82
2023/08/11 06:39:27;;;;;;;6.68;5.68;;;19.30;99.90;;;;;;4983883;28;20046;-83
2023/08/11 06:41:53;;;;;;;7.65;5.75;;;19.20;99.90;;;;;;4987958;28;20054;-80
2023/08/11 06:44:18;;;;;;;5.93;5.30;;;19.20;99.90;;;;;;4988011;28;20559;-83
2023/08/11 06:46:44;;;;;;;6.25;4.97;;;19.30;99.90;;;;;;4988032;28;20520;-83
2023/08/11 06:49:09;;;;;;;5.03;4.53;;;19.30;99.90;;;;;;4986648;28;20050;-83
2023/08/11 06:51:35;;;;;;;4.85;4.45;;;19.40;99.90;;;;;;4987773;28;20100;-83
2023/08/11 06:54:01;;;;;;;7.00;4.93;;;19.50;99.90;;;;;;4985795;28;20850;-82
2023/08/11 06:56:26;;;;;;;5.20;4.70;;;19.50;99.90;;;;;;4970198;28;20047;-82
2023/08/11 06:58:52;;;;;;;5.45;4.75;;;19.60;99.90;;;;;;4969790;28;20050;-83
2023/08/11 07:01:18;;;;;;;5.85;5.20;;;19.70;99.90;;;;;;4983194;28;20051;-81
2023/08/11 07:03:46;;;;;;;5.18;4.68;;;19.80;99.90;;;;;;4968614;28;20039;-85
2023/08/11 07:06:12;;;;;;;6.35;4.63;;;19.90;99.90;;;;;;4971330;28;20054;-83
2023/08/11 07:08:39;;;;;;;6.90;5.28;;;20.00;99.90;;;;;;4984784;28;20062;-81
2023/08/11 07:11:05;;;;;;;8.02;4.97;;;20.10;99.90;;;;;;4990653;28;20081;-82
2023/08/11 07:13:30;;;;;;;8.55;4.68;;;20.20;99.90;;;;;;4990361;28;20085;-82
2023/08/11 07:15:56;;;;;;;5.78;4.30;;;20.40;99.90;;;;;;4990554;28;20043;-82
2023/08/11 07:18:23;;;;;;;5.13;4.63;;;20.60;99.90;;;;;;4990275;28;20073;-82
2023/08/11 07:20:48;;;;;;;7.05;4.20;;;20.60;99.90;;;;;;4991610;28;20054;-83
2023/08/11 07:23:16;;;;;;;4.82;4.32;;;20.70;99.90;;;;;;4990392;28;20043;-82
2023/08/11 07:25:42;;;;;;;6.82;4.38;;;20.80;99.90;;;;;;4977535;28;20055;-82
2023/08/11 07:28:08;;;;;;;4.55;4.15;;;20.90;99.90;;;;;;4974608;28;20577;-82
2023/08/11 07:30:35;;;;;;;4.75;4.28;;;21.00;99.90;;;;;;4982645;28;20129;-82
2023/08/11 07:33:02;;;;;;;4.10;3.80;;;21.20;99.90;;;;;;4990330;28;20046;-82
2023/08/11 07:35:28;;;;;;;5.15;4.18;;;21.30;99.90;;;;;;4971125;28;20054;-82
2023/08/11 07:37:53;;;;;;;5.00;4.55;;;21.40;99.90;;;;;;4970490;28;20421;-82
2023/08/11 07:40:19;;;;;;;5.15;3.90;;;21.60;99.90;;;;;;4968997;28;20457;-82
2023/08/11 07:42:44;;;;;;;4.13;3.72;;;21.60;99.90;;;;;;4972337;28;20047;-82
2023/08/11 07:45:10;;;;;;;4.43;4.03;;;21.70;99.90;;;;;;4971375;28;20051;-82
2023/08/11 07:47:36;;;;;;;6.65;4.28;;;21.90;99.90;;;;;;4989074;28;20046;-82
2023/08/11 07:50:02;;;;;;;4.22;3.83;;;21.90;99.90;;;;;;4991776;28;20117;-83
2023/08/11 07:52:28;;;;;;;4.40;4.00;;;21.90;99.90;;;;;;4991482;28;20050;-82
2023/08/11 07:54:53;;;;;;;4.45;3.90;;;22.00;99.90;;;;;;4990381;28;20144;-82
2023/08/11 07:57:19;;;;;;;4.35;3.95;;;22.20;99.90;;;;;;4991125;28;20046;-83
2023/08/11 07:59:44;;;;;;;4.47;4.07;;;22.10;99.90;;;;;;4991261;28;20121;-82
2023/08/11 08:02:12;;;;;;;4.70;4.18;;;22.10;99.90;;;;;;4989680;28;20046;-83
2023/08/11 08:04:37;;;;;;;5.45;3.70;;;22.20;99.90;;;;;;4989681;28;20129;-82
2023/08/11 08:07:04;;;;;;;4.13;3.58;;;22.40;99.90;;;;;;4990811;28;20048;-83
2023/08/11 08:09:33;;;;;;;4.75;4.18;;;22.40;99.90;;;;;;4990150;28;20685;-83
2023/08/11 08:12:00;;;;;;;4.68;3.90;;;22.50;99.90;;;;;;4991030;28;20133;-83
2023/08/11 08:14:25;;;;;;;4.07;3.40;;;22.70;99.90;;;;;;4990519;28;20046;-84
2023/08/11 08:16:51;;;;;;;3.58;3.22;;;22.70;99.90;;;;;;4990676;28;20124;-83
2023/08/11 08:19:18;;;;;;;4.05;3.60;;;22.80;99.90;;;;;;4990372;28;20085;-84
2023/08/11 08:21:46;;;;;;;4.75;3.85;;;23.00;99.90;;;;;;4989566;28;20109;-83
2023/08/11 08:24:14;;;;;;;3.58;3.28;;;23.10;99.90;;;;;;4971357;28;20134;-83
2023/08/11 08:26:40;;;;;;;4.63;3.00;;;23.10;99.90;;;;;;4970837;28;20711;-83
2023/08/11 08:29:05;;;;;;;3.53;3.22;;;23.30;99.90;;;;;;4971386;28;20046;-82
2023/08/11 08:31:31;;;;;;;5.72;3.65;;;23.40;99.90;;;;;;4970722;28;20579;-84
2023/08/11 08:33:57;;;;;;;3.17;2.83;;;23.40;99.90;;;;;;4969645;28;20556;-83
2023/08/11 08:36:23;;;;;;;4.47;3.10;;;23.50;99.90;;;;;;4970519;28;20046;-82
2023/08/11 08:38:49;;;;;;;5.03;3.00;;;23.60;99.90;;;;;;4970826;28;20097;-82
2023/08/11 08:41:17;;;;;;;3.15;2.85;;;23.60;99.90;;;;;;4970555;28;20098;-82
2023/08/11 08:43:43;;;;;;;4.38;3.15;;;23.70;99.90;;;;;;4969250;28;20482;-83
2023/08/11 08:46:11;;;;;;;3.30;3.00;;;23.80;99.90;;;;;;4971032;28;20133;-82
2023/08/11 08:48:43;;;;;;;3.92;3.20;;;23.90;99.90;;;;;;4970685;28;20376;-82
2023/08/11 08:51:09;;;;;;;4.18;3.33;;;24.00;99.90;;;;;;4971064;28;20055;-82
2023/08/11 08:53:34;;;;;;;7.13;3.47;;;24.00;99.90;;;;;;4969935;28;20081;-82
2023/08/11 08:56:04;;;;;;;3.67;2.80;;;24.00;99.90;;;;;;4970872;28;20474;-83
2023/08/11 08:58:31;;;;;;;4.45;2.88;;;24.00;99.90;;;;;;4969422;28;20054;-83
2023/08/11 09:01:01;;;;;;;3.75;3.03;;;24.20;99.90;;;;;;4970436;28;20485;-82
2023/08/11 09:03:30;;;;;;;3.85;3.00;;;24.30;99.90;;;;;;4970460;28;20883;-82
2023/08/11 09:05:57;;;;;;;4.22;3.03;;;24.30;99.90;;;;;;4970805;28;20038;-83
2023/08/11 09:08:23;;;;;;;5.05;2.90;;;24.40;99.90;;;;;;4969773;28;20039;-83
2023/08/11 09:10:49;;;;;;;3.70;3.40;;;24.50;99.90;;;;;;4970959;28;20057;-82
2023/08/11 09:13:17;;;;;;;4.82;2.95;;;24.40;99.90;;;;;;4970362;28;20050;-83
2023/08/11 09:15:44;;;;;;;4.82;3.47;;;24.50;99.90;;;;;;4969527;28;20464;-83
2023/08/11 09:18:15;;;;;;;6.07;3.63;;;24.60;99.90;;;;;;4952887;28;20075;-83
2023/08/11 09:20:41;;;;;;;3.57;3.23;;;24.60;99.90;;;;;;4970976;28;20050;-83
2023/08/11 09:23:06;;;;;;;4.55;3.45;;;24.60;99.90;;;;;;4980154;28;20277;-83
2023/08/11 09:25:33;;;;;;;3.90;3.30;;;24.60;99.90;;;;;;4989544;28;20100;-84
2023/08/11 09:27:59;;;;;;;5.57;3.70;;;24.70;99.90;;;;;;4989605;28;20054;-83
2023/08/11 09:30:31;;;;;;;4.45;3.00;;;24.60;99.90;;;;;;4989722;28;20070;-83
2023/08/11 09:33:00;;;;;;;4.55;3.28;;;24.70;99.90;;;;;;4989292;28;20046;-82
2023/08/11 09:35:26;;;;;;;5.13;3.58;;;24.80;99.90;;;;;;4989068;28;20038;-82
2023/08/11 09:37:53;;;;;;;4.57;3.17;;;24.90;99.90;;;;;;4989104;28;20064;-83
2023/08/11 09:40:21;;;;;;;9.07;3.42;;;24.90;99.90;;;;;;4989092;28;20105;-83
2023/08/11 09:42:46;;;;;;;7.22;3.67;;;24.90;99.90;;;;;;4988595;28;20076;-83
2023/08/11 09:45:12;;;;;;;5.20;3.97;;;25.10;99.90;;;;;;4989308;28;20045;-83
2023/08/11 09:47:37;;;;;;;5.30;3.80;;;25.20;99.90;;;;;;4989229;28;20129;-83
2023/08/11 09:50:03;;;;;;;5.53;3.28;;;25.20;99.70;;;;;;4988190;28;20121;-83
2023/08/11 09:52:33;;;;;;;4.20;3.17;;;25.30;99.90;;;;;;4988306;28;20041;-83
2023/08/11 09:54:59;;;;;;;4.55;3.38;;;25.30;99.90;;;;;;4989933;28;20042;-83
2023/08/11 09:57:26;;;;;;;5.30;3.08;;;25.40;99.90;;;;;;4989484;28;20058;-83
2023/08/11 09:59:53;;;;;;;10.82;3.38;;;25.50;99.90;;;;;;4988873;28;20708;-83
2023/08/11 10:02:22;;;;;;;5.72;3.03;;;25.60;99.90;;;;;;4989157;28;20050;-82
2023/08/11 10:04:57;;;;;;;5.47;3.20;;;25.70;99.60;;;;;;4988826;28;20038;-82
2023/08/11 10:07:29;;;;;;;6.10;3.30;;;25.70;98.60;;;;;;4989304;28;20046;-82
2023/08/11 10:09:56;;;;;;;3.78;3.28;;;25.80;98.90;;;;;;4988286;28;20053;-82
2023/08/11 10:12:22;;;;;;;14.30;3.92;;;25.80;99.00;;;;;;4988650;28;20038;-82
2023/08/11 10:14:48;;;;;;;5.20;2.85;;;25.80;98.10;;;;;;4987749;28;20408;-83
2023/08/11 10:17:14;;;;;;;6.25;3.35;;;25.90;98.30;;;;;;4989190;28;20518;-82
2023/08/11 10:19:40;;;;;;;5.55;4.13;;;26.00;97.60;;;;;;4989211;28;20125;-83
2023/08/11 10:22:06;;;;;;;9.52;3.83;;;26.10;97.30;;;;;;4985794;28;20077;-83
2023/08/11 10:24:36;;;;;;;5.90;3.58;;;26.40;97.10;;;;;;4967859;28;20042;-83
2023/08/11 10:27:02;;;;;;;4.28;3.20;;;26.20;97.00;;;;;;4967690;28;20588;-83
2023/08/11 10:29:28;;;;;;;4.10;3.05;;;26.30;96.60;;;;;;4969371;28;20054;-81
2023/08/11 10:31:58;;;;;;;4.60;3.22;;;26.30;96.40;;;;;;4969361;28;20047;-82
2023/08/11 10:34:25;;;;;;;5.53;2.65;;;26.30;96.50;;;;;;4968959;28;20135;-83
2023/08/11 10:36:54;;;;;;;3.30;2.60;;;26.40;96.80;;;;;;4968886;28;20043;-82
2023/08/11 10:39:20;;;;;;;4.35;2.92;;;26.50;96.90;;;;;;4968544;28;20054;-83
2023/08/11 10:41:47;;;;;;;3.80;2.60;;;26.60;96.20;;;;;;4969726;28;20058;-84
2023/08/11 10:44:18;;;;;;;5.72;2.70;;;26.60;95.30;;;;;;4951371;28;20043;-83
2023/08/11 10:46:45;;;;;;;3.17;2.60;;;26.60;94.50;;;;;;4969673;28;20047;-83
2023/08/11 10:49:14;;;;;;;3.58;2.65;;;26.70;94.70;;;;;;4968775;28;20046;-83
2023/08/11 10:51:40;;;;;;;3.65;2.40;;;26.80;94.10;;;;;;4967796;28;20163;-83
2023/08/11 10:54:06;;;;;;;5.20;2.60;;;26.80;93.20;;;;;;4968426;28;20042;-83
2023/08/11 10:56:41;;;;;;;4.38;2.75;;;26.90;92.20;;;;;;4968694;28;20507;-83
2023/08/11 10:59:25;;;;;;;3.58;2.33;;;26.90;92.80;;;;;;4968308;28;20051;-83
2023/08/11 11:01:55;;;;;;;4.35;2.47;;;27.00;92.10;;;;;;4968586;28;20059;-81
2023/08/11 11:04:22;;;;;;;4.28;2.45;;;27.00;92.20;;;;;;4981989;28;20046;-83
2023/08/11 11:06:49;;;;;;;5.55;2.60;;;27.10;92.50;;;;;;4980749;28;20070;-82
2023/08/11 11:09:15;;;;;;;3.72;2.50;;;27.00;93.10;;;;;;4970667;28;20057;-82
2023/08/11 11:11:41;;;;;;;4.38;2.60;;;27.30;92.10;;;;;;4973912;28;20055;-82
2023/08/11 11:14:09;;;;;;;4.25;2.22;;;27.40;92.10;;;;;;4970186;28;20412;-82
2023/08/11 11:16:35;;;;;;;4.07;2.40;;;27.30;91.60;;;;;;4968107;28;20110;-82
2023/08/11 11:19:05;;;;;;;3.78;2.72;;;27.40;92.00;;;;;;4968832;28;20047;-81
2023/08/11 11:21:33;;;;;;;5.25;2.60;;;27.40;90.50;;;;;;4968186;28;20677;-81
2023/08/11 11:24:02;;;;;;;3.67;2.53;;;27.10;90.30;;;;;;4967990;28;20050;-83
2023/08/11 11:26:30;;;;;;;4.10;2.50;;;27.30;89.80;;;;;;4970334;28;20056;-81
2023/08/11 11:28:58;;;;;;;4.22;2.47;;;27.10;88.50;;;;;;4985879;28;20061;-82
2023/08/11 11:31:31;;;;;;;3.53;2.50;;;27.00;87.90;;;;;;4982627;28;20441;-83
2023/08/11 11:33:57;;;;;;;5.88;2.75;;;26.90;89.30;;;;;;4987478;28;20121;-82
2023/08/11 11:36:23;;;;;;;3.72;2.75;;;26.80;90.00;;;;;;4987225;28;20528;-82
2023/08/11 11:38:51;;;;;;;4.63;2.50;;;26.80;90.10;;;;;;4987464;28;20054;-82
2023/08/11 11:41:19;;;;;;;4.63;2.88;;;26.90;90.40;;;;;;4987040;28;20050;-83
2023/08/11 11:43:46;;;;;;;4.00;2.65;;;27.10;90.70;;;;;;4986979;28;20050;-83
2023/08/11 11:46:17;;;;;;;3.50;2.30;;;27.10;90.40;;;;;;4987175;28;20034;-84
2023/08/11 11:48:53;;;;;;;3.03;2.60;;;27.30;90.40;;;;;;4969394;28;20081;-85
2023/08/11 11:51:29;;;;;;;5.15;2.60;;;27.50;90.60;;;;;;4987369;28;20057;-85
2023/08/11 11:53:56;;;;;;;6.50;2.40;;;27.90;91.10;;;;;;4985642;28;20871;-81
2023/08/11 11:56:22;;;;;;;3.70;2.63;;;27.90;90.40;;;;;;4988177;28;20362;-82
2023/08/11 11:58:49;;;;;;;6.07;2.47;;;28.00;90.00;;;;;;4990160;28;20049;-79
2023/08/11 12:01:17;;;;;;;3.65;2.53;;;27.90;90.00;;;;;;4982960;28;20042;-80
2023/08/11 12:03:48;;;;;;;5.82;2.95;;;28.10;88.50;;;;;;4989509;28;20054;-81
2023/08/11 12:06:15;;;;;;;3.80;2.73;;;28.00;86.70;;;;;;4989382;28;20053;-81
2023/08/11 12:08:42;;;;;;;4.00;2.30;;;28.00;87.80;;;;;;4984108;28;20124;-79
2023/08/11 12:11:13;;;;;;;4.57;2.70;;;28.00;87.00;;;;;;4988936;28;20081;-81
2023/08/11 12:13:43;;;;;;;4.78;2.60;;;27.90;87.30;;;;;;4983137;28;20046;-83
2023/08/11 12:16:12;;;;;;;5.00;2.50;;;28.00;87.00;;;;;;4988621;28;20476;-81
2023/08/11 12:18:39;;;;;;;5.30;2.55;;;28.00;88.00;;;;;;4989210;28;20077;-80
2023/08/11 12:21:06;;;;;;;3.80;2.60;;;28.10;86.50;;;;;;4987982;28;20564;-81
2023/08/11 12:23:31;;;;;;;4.55;2.60;;;28.10;86.50;;;;;;4988038;28;20042;-80
2023/08/11 12:25:58;;;;;;;6.28;2.58;;;28.10;87.70;;;;;;4989700;28;20109;-80
2023/08/11 12:28:24;;;;;;;3.65;2.70;;;28.20;88.50;;;;;;4989831;28;20042;-80
2023/08/11 12:30:49;;;;;;;3.33;2.95;;;28.20;88.40;;;;;;4989566;28;20090;-82
2023/08/11 12:33:16;;;;;;;4.65;2.78;;;28.20;85.90;;;;;;4990286;28;20389;-82
2023/08/11 12:35:46;;;;;;;4.15;2.25;;;28.30;87.70;;;;;;4972234;28;20129;-83